sensor_id;sensor_type;location;lat;lon;timestamp;pressure;altitude;pressure_sealevel;temperature;humidity
2875;BME280;1445;52.600;13.328;2024-03-23T00:54:37;77900.69;;;-145.99;100.00
2875;BME280;1445;52.600;13.328;2024-03-23T00:57:02;77904.88;;;-145.99;100.00
2875;BME280;1445;52.600;13.328;2024-03-23T00:59:28;77911.19;;;-145.99;100.00
2875;BME280;1445;52.600;13.328;2024-03-23T01:01:54;77906.97;;;-145.99;100.00
2875;BME280;1445;52.600;13.328;2024-03-23T01:04:20;77902.78;;;-145.99;100.00
2875;BME280;1445;52.600;13.328;2024-03-23T01:06:45;77915.38;;;-145.99;100.00
2875;BME280;1445;52.600;13.328;2024-03-23T01:09:11;77909.06;;;-145.99;100.00
2875;BME280;1445;52.600;13.328;2024-03-23T01:11:37;77909.06;;;-145.99;100.00
2875;BME280;1445;52.600;13.328;2024-03-23T01:14:02;77898.56;;;-145.99;100.00
2875;BME280;1445;52.600;13.328;2024-03-23T01:16:28;77913.28;;;-145.99;100.00
2875;BME280;1445;52.600;13.328;2024-03-23T01:18:53;77904.88;;;-145.99;100.00
2875;BME280;1445;52.600;13.328;2024-03-23T01:21:19;77896.47;;;-145.99;100.00
2875;BME280;1445;52.600;13.328;2024-03-23T01:23:44;77900.69;;;-145.99;100.00
2875;BME280;1445;52.600;13.328;2024-03-23T01:26:10;77900.69;;;-145.99;100.00
2875;BME280;1445;52.600;13.328;2024-03-23T01:28:35;77892.28;;;-145.99;100.00
2875;BME280;1445;52.600;13.328;2024-03-23T01:31:01;77896.47;;;-145.99;100.00
2875;BME280;1445;52.600;13.328;2024-03-23T01:33:26;77877.56;;;-145.99;100.00
2875;BME280;1445;52.600;13.328;2024-03-23T01:35:51;77883.88;;;-145.99;100.00
2875;BME280;1445;52.600;13.328;2024-03-23T01:38:17;77885.97;;;-145.99;100.00
2875;BME280;1445;52.600;13.328;2024-03-23T01:40:42;77885.97;;;-145.99;100.00
2875;BME280;1445;52.600;13.328;2024-03-23T01:43:08;77873.38;;;-145.99;100.00
2875;BME280;1445;52.600;13.328;2024-03-23T01:45:34;77875.47;;;-145.99;100.00
2875;BME280;1445;52.600;13.328;2024-03-23T01:48:00;77871.28;;;-145.99;100.00
2875;BME280;1445;52.600;13.328;2024-03-23T01:50:26;77843.97;;;-145.99;100.00
2875;BME280;1445;52.600;13.328;2024-03-23T01:52:53;77841.88;;;-145.99;100.00
2875;BME280;1445;52.600;13.328;2024-03-23T01:55:19;77841.88;;;-145.99;100.00
2875;BME280;1445;52.600;13.328;2024-03-23T01:57:45;77835.56;;;-145.99;100.00
2875;BME280;1445;52.600;13.328;2024-03-23T02:00:11;77831.34;;;-145.99;100.00
2875;BME280;1445;52.600;13.328;2024-03-23T02:02:42;77843.97;;;-145.99;100.00
2875;BME280;1445;52.600;13.328;2024-03-23T02:05:08;77854.47;;;-145.99;100.00
2875;BME280;1445;52.600;13.328;2024-03-23T02:07:33;77848.16;;;-145.99;100.00
2875;BME280;1445;52.600;13.328;2024-03-23T02:10:00;77850.25;;;-145.99;100.00
2875;BME280;1445;52.600;13.328;2024-03-23T02:12:26;77850.25;;;-145.99;100.00
2875;BME280;1445;52.600;13.328;2024-03-23T02:14:51;77854.47;;;-145.99;100.00
2875;BME280;1445;52.600;13.328;2024-03-23T02:17:16;77858.66;;;-145.99;100.00
2875;BME280;1445;52.600;13.328;2024-03-23T02:19:42;77867.06;;;-145.99;100.00
2875;BME280;1445;52.600;13.328;2024-03-23T02:22:07;77869.16;;;-145.99;100.00
2875;BME280;1445;52.600;13.328;2024-03-23T02:24:32;77858.66;;;-145.99;100.00
2875;BME280;1445;52.600;13.328;2024-03-23T02:26:59;77848.16;;;-145.99;100.00
2875;BME280;1445;52.600;13.328;2024-03-23T02:29:24;77858.66;;;-145.99;100.00
2875;BME280;1445;52.600;13.328;2024-03-23T02:31:50;77852.38;;;-145.99;100.00
2875;BME280;1445;52.600;13.328;2024-03-23T02:34:15;77856.56;;;-145.99;100.00
2875;BME280;1445;52.600;13.328;2024-03-23T02:36:40;77852.38;;;-145.99;100.00
2875;BME280;1445;52.600;13.328;2024-03-23T02:39:06;77848.16;;;-145.99;100.00
2875;BME280;1445;52.600;13.328;2024-03-23T02:41:31;77850.25;;;-145.99;100.00
2875;BME280;1445;52.600;13.328;2024-03-23T02:43:57;77837.66;;;-145.99;100.00
2875;BME280;1445;52.600;13.328;2024-03-23T02:46:22;77829.25;;;-145.99;100.00
2875;BME280;1445;52.600;13.328;2024-03-23T02:48:50;77837.66;;;-145.99;100.00
2875;BME280;1445;52.600;13.328;2024-03-23T02:51:16;77833.47;;;-145.99;100.00
2875;BME280;1445;52.600;13.328;2024-03-23T02:53:41;77833.47;;;-145.99;100.00
2875;BME280;1445;52.600;13.328;2024-03-23T02:56:06;77831.34;;;-145.99;100.00
2875;BME280;1445;52.600;13.328;2024-03-23T02:58:32;77843.97;;;-145.99;100.00
2875;BME280;1445;52.600;13.328;2024-03-23T03:00:57;77841.88;;;-145.99;100.00
2875;BME280;1445;52.600;13.328;2024-03-23T03:03:23;77848.16;;;-145.99;100.00
2875;BME280;1445;52.600;13.328;2024-03-23T03:05:54;77841.88;;;-145.99;100.00
2875;BME280;1445;52.600;13.328;2024-03-23T03:08:20;77839.75;;;-145.99;100.00
2875;BME280;1445;52.600;13.328;2024-03-23T03:10:45;77841.88;;;-145.99;100.00
2875;BME280;1445;52.600;13.328;2024-03-23T03:13:10;77846.06;;;-145.99;100.00
2875;BME280;1445;52.600;13.328;2024-03-23T03:15:36;77839.75;;;-145.99;100.00
2875;BME280;1445;52.600;13.328;2024-03-23T03:18:01;77837.66;;;-145.99;100.00
2875;BME280;1445;52.600;13.328;2024-03-23T03:20:27;77835.56;;;-145.99;100.00
2875;BME280;1445;52.600;13.328;2024-03-23T03:22:52;77827.16;;;-145.99;100.00
2875;BME280;1445;52.600;13.328;2024-03-23T03:25:19;77818.75;;;-145.99;100.00
2875;BME280;1445;52.600;13.328;2024-03-23T03:27:44;77825.06;;;-145.99;100.00
2875;BME280;1445;52.600;13.328;2024-03-23T03:30:10;77831.34;;;-145.99;100.00
2875;BME280;1445;52.600;13.328;2024-03-23T03:32:35;77829.25;;;-145.99;100.00
2875;BME280;1445;52.600;13.328;2024-03-23T03:35:01;77837.66;;;-145.99;100.00
2875;BME280;1445;52.600;13.328;2024-03-23T03:37:26;77835.56;;;-145.99;100.00
2875;BME280;1445;52.600;13.328;2024-03-23T03:39:51;77833.47;;;-145.99;100.00
2875;BME280;1445;52.600;13.328;2024-03-23T03:42:17;77841.88;;;-145.99;100.00
2875;BME280;1445;52.600;13.328;2024-03-23T03:44:42;77850.25;;;-145.99;100.00
2875;BME280;1445;52.600;13.328;2024-03-23T03:47:07;77841.88;;;-145.99;100.00
2875;BME280;1445;52.600;13.328;2024-03-23T03:49:33;77841.88;;;-145.99;100.00
2875;BME280;1445;52.600;13.328;2024-03-23T03:51:58;77858.66;;;-145.99;100.00
2875;BME280;1445;52.600;13.328;2024-03-23T03:54:26;77858.66;;;-145.99;100.00
2875;BME280;1445;52.600;13.328;2024-03-23T03:56:51;77833.47;;;-145.99;100.00
2875;BME280;1445;52.600;13.328;2024-03-23T03:59:17;77833.47;;;-145.99;100.00
2875;BME280;1445;52.600;13.328;2024-03-23T04:01:42;77846.06;;;-145.99;100.00
2875;BME280;1445;52.600;13.328;2024-03-23T04:04:08;77841.88;;;-145.99;100.00
2875;BME280;1445;52.600;13.328;2024-03-23T04:06:33;77833.47;;;-145.99;100.00
2875;BME280;1445;52.600;13.328;2024-03-23T04:08:59;77812.47;;;-145.99;100.00
2875;BME280;1445;52.600;13.328;2024-03-23T04:11:24;77808.25;;;-145.99;100.00
2875;BME280;1445;52.600;13.328;2024-03-23T04:13:50;77818.75;;;-145.99;100.00
2875;BME280;1445;52.600;13.328;2024-03-23T04:16:26;77839.75;;;-145.99;100.00
2875;BME280;1445;52.600;13.328;2024-03-23T04:18:52;77846.06;;;-145.99;100.00
2875;BME280;1445;52.600;13.328;2024-03-23T04:21:17;77846.06;;;-145.99;100.00
2875;BME280;1445;52.600;13.328;2024-03-23T04:23:43;77846.06;;;-145.99;100.00
2875;BME280;1445;52.600;13.328;2024-03-23T04:26:09;77846.06;;;-145.99;100.00
2875;BME280;1445;52.600;13.328;2024-03-23T04:28:34;77829.25;;;-145.99;100.00
2875;BME280;1445;52.600;13.328;2024-03-23T04:31:03;77808.25;;;-145.99;100.00
2875;BME280;1445;52.600;13.328;2024-03-23T04:33:29;77804.06;;;-145.99;100.00
2875;BME280;1445;52.600;13.328;2024-03-23T04:35:54;77808.25;;;-145.99;100.00
2875;BME280;1445;52.600;13.328;2024-03-23T04:38:19;77806.16;;;-145.99;100.00
2875;BME280;1445;52.600;13.328;2024-03-23T04:40:45;77801.94;;;-145.99;100.00
2875;BME280;1445;52.600;13.328;2024-03-23T04:43:10;77795.66;;;-145.99;100.00
2875;BME280;1445;52.600;13.328;2024-03-23T04:45:35;77814.56;;;-145.99;100.00
2875;BME280;1445;52.600;13.328;2024-03-23T04:48:01;77806.16;;;-145.99;100.00
2875;BME280;1445;52.600;13.328;2024-03-23T04:50:26;77831.34;;;-145.99;100.00
2875;BME280;1445;52.600;13.328;2024-03-23T04:52:51;77806.16;;;-145.99;100.00
2875;BME280;1445;52.600;13.328;2024-03-23T04:55:17;77820.84;;;-145.99;100.00
2875;BME280;1445;52.600;13.328;2024-03-23T04:57:42;77827.16;;;-145.99;100.00
2875;BME280;1445;52.600;13.328;2024-03-23T05:00:08;77841.88;;;-145.99;100.00
2875;BME280;1445;52.600;13.328;2024-03-23T05:02:43;77829.25;;;-145.99;100.00
2875;BME280;1445;52.600;13.328;2024-03-23T05:05:09;77816.66;;;-145.99;100.00
2875;BME280;1445;52.600;13.328;2024-03-23T05:07:34;77822.97;;;-145.99;100.00
2875;BME280;1445;52.600;13.328;2024-03-23T05:09:59;77814.56;;;-145.99;100.00
2875;BME280;1445;52.600;13.328;2024-03-23T05:12:25;77822.97;;;-145.99;100.00
2875;BME280;1445;52.600;13.328;2024-03-23T05:14:50;77833.47;;;-145.99;100.00
2875;BME280;1445;52.600;13.328;2024-03-23T05:17:16;77827.16;;;-145.99;100.00
2875;BME280;1445;52.600;13.328;2024-03-23T05:19:42;77829.25;;;-145.99;100.00
2875;BME280;1445;52.600;13.328;2024-03-23T05:22:07;77820.84;;;-145.99;100.00
2875;BME280;1445;52.600;13.328;2024-03-23T05:24:32;77831.34;;;-145.99;100.00
2875;BME280;1445;52.600;13.328;2024-03-23T05:26:58;77833.47;;;-145.99;100.00
2875;BME280;1445;52.600;13.328;2024-03-23T05:29:24;77831.34;;;-145.99;100.00
2875;BME280;1445;52.600;13.328;2024-03-23T05:31:51;77833.47;;;-145.99;100.00
2875;BME280;1445;52.600;13.328;2024-03-23T05:34:17;77839.75;;;-145.99;100.00
2875;BME280;1445;52.600;13.328;2024-03-23T05:36:42;77841.88;;;-145.99;100.00
2875;BME280;1445;52.600;13.328;2024-03-23T05:39:08;77837.66;;;-145.99;100.00
2875;BME280;1445;52.600;13.328;2024-03-23T05:41:33;77841.88;;;-145.99;100.00
2875;BME280;1445;52.600;13.328;2024-03-23T05:44:01;77827.16;;;-145.99;100.00
2875;BME280;1445;52.600;13.328;2024-03-23T05:46:26;77818.75;;;-145.99;100.00
2875;BME280;1445;52.600;13.328;2024-03-23T05:48:52;77814.56;;;-145.99;100.00
2875;BME280;1445;52.600;13.328;2024-03-23T05:51:17;77816.66;;;-145.99;100.00
2875;BME280;1445;52.600;13.328;2024-03-23T05:53:43;77816.66;;;-145.99;100.00
2875;BME280;1445;52.600;13.328;2024-03-23T05:56:08;77808.25;;;-145.99;100.00
2875;BME280;1445;52.600;13.328;2024-03-23T05:58:34;77814.56;;;-145.99;100.00
2875;BME280;1445;52.600;13.328;2024-03-23T06:01:00;77808.25;;;-145.99;100.00
2875;BME280;1445;52.600;13.328;2024-03-23T06:03:27;77808.25;;;-145.99;100.00
2875;BME280;1445;52.600;13.328;2024-03-23T06:05:52;77795.66;;;-145.99;100.00
2875;BME280;1445;52.600;13.328;2024-03-23T06:08:21;77793.56;;;-145.99;100.00
2875;BME280;1445;52.600;13.328;2024-03-23T06:10:47;77791.44;;;-145.99;100.00
2875;BME280;1445;52.600;13.328;2024-03-23T06:13:13;77778.84;;;-145.99;100.00
2875;BME280;1445;52.600;13.328;2024-03-23T06:15:39;77795.66;;;-145.99;100.00
2875;BME280;1445;52.600;13.328;2024-03-23T06:18:05;77780.94;;;-145.99;100.00
2875;BME280;1445;52.600;13.328;2024-03-23T06:20:31;77783.03;;;-145.99;100.00
2875;BME280;1445;52.600;13.328;2024-03-23T06:22:57;77795.66;;;-145.99;100.00
2875;BME280;1445;52.600;13.328;2024-03-23T06:25:22;77783.03;;;-145.99;100.00
2875;BME280;1445;52.600;13.328;2024-03-23T06:27:48;77789.34;;;-145.99;100.00
2875;BME280;1445;52.600;13.328;2024-03-23T06:30:13;77776.75;;;-145.99;100.00
2875;BME280;1445;52.600;13.328;2024-03-23T06:32:38;77753.66;;;-145.99;100.00
2875;BME280;1445;52.600;13.328;2024-03-23T06:35:04;77747.34;;;-145.99;100.00
2875;BME280;1445;52.600;13.328;2024-03-23T06:37:34;77764.16;;;-145.99;100.00
2875;BME280;1445;52.600;13.328;2024-03-23T06:39:59;77755.75;;;-145.99;100.00
2875;BME280;1445;52.600;13.328;2024-03-23T06:42:24;77762.03;;;-145.99;100.00
2875;BME280;1445;52.600;13.328;2024-03-23T06:44:50;77751.53;;;-145.99;100.00
2875;BME280;1445;52.600;13.328;2024-03-23T06:47:15;77726.34;;;-145.99;100.00
2875;BME280;1445;52.600;13.328;2024-03-23T06:49:40;77709.53;;;-145.99;100.00
2875;BME280;1445;52.600;13.328;2024-03-23T06:52:06;77699.03;;;-145.99;100.00
2875;BME280;1445;52.600;13.328;2024-03-23T06:54:31;77701.13;;;-145.99;100.00
2875;BME280;1445;52.600;13.328;2024-03-23T06:56:56;77682.22;;;-145.99;100.00
2875;BME280;1445;52.600;13.328;2024-03-23T06:59:22;77661.22;;;-145.99;100.00
2875;BME280;1445;52.600;13.328;2024-03-23T07:01:47;77675.94;;;-145.99;100.00
2875;BME280;1445;52.600;13.328;2024-03-23T07:04:12;77665.44;;;-145.99;100.00
2875;BME280;1445;52.600;13.328;2024-03-23T07:06:45;77657.03;;;-145.99;100.00
2875;BME280;1445;52.600;13.328;2024-03-23T07:09:11;77663.31;;;-145.99;100.00
2875;BME280;1445;52.600;13.328;2024-03-23T07:11:37;77657.03;;;-145.99;100.00
2875;BME280;1445;52.600;13.328;2024-03-23T07:14:03;77642.31;;;-145.99;100.00
2875;BME280;1445;52.600;13.328;2024-03-23T07:16:30;77621.31;;;-145.99;100.00
2875;BME280;1445;52.600;13.328;2024-03-23T07:18:55;77652.81;;;-145.99;100.00
2875;BME280;1445;52.600;13.328;2024-03-23T07:21:21;77657.03;;;-145.99;100.00
2875;BME280;1445;52.600;13.328;2024-03-23T07:23:47;77657.03;;;-145.99;100.00
2875;BME280;1445;52.600;13.328;2024-03-23T07:26:13;77627.63;;;-145.99;100.00
2875;BME280;1445;52.600;13.328;2024-03-23T07:28:38;77608.72;;;-145.99;100.00
2875;BME280;1445;52.600;13.328;2024-03-23T07:31:10;77570.91;;;-145.99;100.00
2875;BME280;1445;52.600;13.328;2024-03-23T07:33:41;77552.00;;;-145.99;100.00
2875;BME280;1445;52.600;13.328;2024-03-23T07:36:06;77541.50;;;-145.99;100.00
2875;BME280;1445;52.600;13.328;2024-03-23T07:38:32;77573.00;;;-145.99;100.00
2875;BME280;1445;52.600;13.328;2024-03-23T07:41:08;77606.63;;;-145.99;100.00
2875;BME280;1445;52.600;13.328;2024-03-23T07:43:34;77631.81;;;-145.99;100.00
2875;BME280;1445;52.600;13.328;2024-03-23T07:46:00;77663.31;;;-145.99;100.00
2875;BME280;1445;52.600;13.328;2024-03-23T07:48:26;77690.63;;;-145.99;100.00
2875;BME280;1445;52.600;13.328;2024-03-23T07:51:03;77699.03;;;-145.99;100.00
2875;BME280;1445;52.600;13.328;2024-03-23T07:53:33;77686.44;;;-145.99;100.00
2875;BME280;1445;52.600;13.328;2024-03-23T07:56:05;77696.94;;;-145.99;100.00
2875;BME280;1445;52.600;13.328;2024-03-23T07:58:32;77703.22;;;-145.99;100.00
2875;BME280;1445;52.600;13.328;2024-03-23T08:01:04;77707.44;;;-145.99;100.00
2875;BME280;1445;52.600;13.328;2024-03-23T08:03:30;77713.75;;;-145.99;100.00
2875;BME280;1445;52.600;13.328;2024-03-23T08:05:56;77728.44;;;-145.99;100.00
2875;BME280;1445;52.600;13.328;2024-03-23T08:08:21;77732.63;;;-145.99;100.00
2875;BME280;1445;52.600;13.328;2024-03-23T08:10:51;77774.66;;;-145.99;100.00
2875;BME280;1445;52.600;13.328;2024-03-23T08:13:16;77764.16;;;-145.99;100.00
2875;BME280;1445;52.600;13.328;2024-03-23T08:15:42;77749.44;;;-145.99;100.00
2875;BME280;1445;52.600;13.328;2024-03-23T08:18:07;77755.75;;;-145.99;100.00
2875;BME280;1445;52.600;13.328;2024-03-23T08:20:33;77766.25;;;-145.99;100.00
2875;BME280;1445;52.600;13.328;2024-03-23T08:22:58;77768.34;;;-145.99;100.00
2875;BME280;1445;52.600;13.328;2024-03-23T08:25:24;77778.84;;;-145.99;100.00
2875;BME280;1445;52.600;13.328;2024-03-23T08:27:49;77774.66;;;-145.99;100.00
2875;BME280;1445;52.600;13.328;2024-03-23T08:30:14;77783.03;;;-145.99;100.00
2875;BME280;1445;52.600;13.328;2024-03-23T08:32:40;77774.66;;;-145.99;100.00
2875;BME280;1445;52.600;13.328;2024-03-23T08:35:06;77783.03;;;-145.99;100.00
2875;BME280;1445;52.600;13.328;2024-03-23T08:37:32;77783.03;;;-145.99;100.00
2875;BME280;1445;52.600;13.328;2024-03-23T08:39:57;77804.06;;;-145.99;100.00
2875;BME280;1445;52.600;13.328;2024-03-23T08:42:22;77799.84;;;-145.99;100.00
2875;BME280;1445;52.600;13.328;2024-03-23T08:44:48;77780.94;;;-145.99;100.00
2875;BME280;1445;52.600;13.328;2024-03-23T08:47:16;77770.44;;;-145.99;100.00
2875;BME280;1445;52.600;13.328;2024-03-23T08:49:41;77793.56;;;-145.99;100.00
2875;BME280;1445;52.600;13.328;2024-03-23T08:52:07;77808.25;;;-145.99;100.00
2875;BME280;1445;52.600;13.328;2024-03-23T08:54:33;77812.47;;;-145.99;100.00
2875;BME280;1445;52.600;13.328;2024-03-23T08:56:58;77837.66;;;-145.99;100.00
2875;BME280;1445;52.600;13.328;2024-03-23T08:59:23;77877.56;;;-145.99;100.00
2875;BME280;1445;52.600;13.328;2024-03-23T09:01:49;77862.88;;;-145.99;100.00
2875;BME280;1445;52.600;13.328;2024-03-23T09:04:14;77850.25;;;-145.99;100.00
2875;BME280;1445;52.600;13.328;2024-03-23T09:06:42;77867.06;;;-145.99;100.00
2875;BME280;1445;52.600;13.328;2024-03-23T09:09:08;77854.47;;;-145.99;100.00
2875;BME280;1445;52.600;13.328;2024-03-23T09:11:33;77841.88;;;-145.99;100.00
2875;BME280;1445;52.600;13.328;2024-03-23T09:13:58;77852.38;;;-145.99;100.00
2875;BME280;1445;52.600;13.328;2024-03-23T09:16:24;77841.88;;;-145.99;100.00
2875;BME280;1445;52.600;13.328;2024-03-23T09:18:49;77858.66;;;-145.99;100.00
2875;BME280;1445;52.600;13.328;2024-03-23T09:21:14;77862.88;;;-145.99;100.00
2875;BME280;1445;52.600;13.328;2024-03-23T09:23:43;77848.16;;;-145.99;100.00
2875;BME280;1445;52.600;13.328;2024-03-23T09:26:08;77841.88;;;-145.99;100.00
2875;BME280;1445;52.600;13.328;2024-03-23T09:28:34;77835.56;;;-145.99;100.00
2875;BME280;1445;52.600;13.328;2024-03-23T09:31:07;77835.56;;;-145.99;100.00
2875;BME280;1445;52.600;13.328;2024-03-23T09:33:34;77835.56;;;-145.99;100.00
2875;BME280;1445;52.600;13.328;2024-03-23T09:36:04;77839.75;;;-145.99;100.00
2875;BME280;1445;52.600;13.328;2024-03-23T09:38:29;77825.06;;;-145.99;100.00
2875;BME280;1445;52.600;13.328;2024-03-23T09:40:55;77831.34;;;-145.99;100.00
2875;BME280;1445;52.600;13.328;2024-03-23T09:43:21;77835.56;;;-145.99;100.00
2875;BME280;1445;52.600;13.328;2024-03-23T09:45:48;77822.97;;;-145.99;100.00
2875;BME280;1445;52.600;13.328;2024-03-23T09:48:14;77816.66;;;-145.99;100.00
2875;BME280;1445;52.600;13.328;2024-03-23T09:50:40;77816.66;;;-145.99;100.00
2875;BME280;1445;52.600;13.328;2024-03-23T09:53:10;77812.47;;;-145.99;100.00
2875;BME280;1445;52.600;13.328;2024-03-23T09:55:36;77820.84;;;-145.99;100.00
2875;BME280;1445;52.600;13.328;2024-03-23T09:58:02;77837.66;;;-145.99;100.00
2875;BME280;1445;52.600;13.328;2024-03-23T10:00:28;77864.97;;;-145.99;100.00
2875;BME280;1445;52.600;13.328;2024-03-23T10:02:56;77858.66;;;-145.99;100.00
2875;BME280;1445;52.600;13.328;2024-03-23T10:05:26;77860.75;;;-145.99;100.00
2875;BME280;1445;52.600;13.328;2024-03-23T10:07:52;77841.88;;;-145.99;100.00
2875;BME280;1445;52.600;13.328;2024-03-23T10:10:18;77850.25;;;-145.99;100.00
2875;BME280;1445;52.600;13.328;2024-03-23T10:12:48;77841.88;;;-145.99;100.00
2875;BME280;1445;52.600;13.328;2024-03-23T10:15:19;77871.28;;;-145.99;100.00
2875;BME280;1445;52.600;13.328;2024-03-23T10:17:45;77867.06;;;-145.99;100.00
2875;BME280;1445;52.600;13.328;2024-03-23T10:20:11;77883.88;;;-145.99;100.00
2875;BME280;1445;52.600;13.328;2024-03-23T10:22:39;77873.38;;;-145.99;100.00
2875;BME280;1445;52.600;13.328;2024-03-23T10:25:09;77883.88;;;-145.99;100.00
2875;BME280;1445;52.600;13.328;2024-03-23T10:27:34;77885.97;;;-145.99;100.00
2875;BME280;1445;52.600;13.328;2024-03-23T10:30:11;77909.06;;;-145.99;100.00
2875;BME280;1445;52.600;13.328;2024-03-23T10:32:36;77923.78;;;-145.99;100.00
2875;BME280;1445;52.600;13.328;2024-03-23T10:35:20;77911.19;;;-145.99;100.00
2875;BME280;1445;52.600;13.328;2024-03-23T10:37:49;77913.28;;;-145.99;100.00
2875;BME280;1445;52.600;13.328;2024-03-23T10:40:16;77911.19;;;-145.99;100.00
2875;BME280;1445;52.600;13.328;2024-03-23T10:42:41;77915.38;;;-145.99;100.00
2875;BME280;1445;52.600;13.328;2024-03-23T10:45:08;77902.78;;;-145.99;100.00
2875;BME280;1445;52.600;13.328;2024-03-23T10:47:37;77888.06;;;-145.99;100.00
2875;BME280;1445;52.600;13.328;2024-03-23T10:50:06;77890.19;;;-145.99;100.00
2875;BME280;1445;52.600;13.328;2024-03-23T10:52:35;77906.97;;;-145.99;100.00
2875;BME280;1445;52.600;13.328;2024-03-23T10:55:04;77879.66;;;-145.99;100.00
2875;BME280;1445;52.600;13.328;2024-03-23T10:57:36;77890.19;;;-145.99;100.00
2875;BME280;1445;52.600;13.328;2024-03-23T11:00:04;77902.78;;;-145.99;100.00
2875;BME280;1445;52.600;13.328;2024-03-23T11:02:30;77896.47;;;-145.99;100.00
2875;BME280;1445;52.600;13.328;2024-03-23T11:04:56;77892.28;;;-145.99;100.00
2875;BME280;1445;52.600;13.328;2024-03-23T11:10:00;77894.38;;;-145.99;100.00
2875;BME280;1445;52.600;13.328;2024-03-23T11:12:27;77890.19;;;-145.99;100.00
2875;BME280;1445;52.600;13.328;2024-03-23T11:15:11;77898.56;;;-145.99;100.00
2875;BME280;1445;52.600;13.328;2024-03-23T11:17:36;77883.88;;;-145.99;100.00
2875;BME280;1445;52.600;13.328;2024-03-23T11:20:06;77877.56;;;-145.99;100.00
2875;BME280;1445;52.600;13.328;2024-03-23T11:27:37;77860.75;;;-145.99;100.00
2875;BME280;1445;52.600;13.328;2024-03-23T11:30:21;77846.06;;;-145.99;100.00
2875;BME280;1445;52.600;13.328;2024-03-23T11:32:48;77850.25;;;-145.99;100.00
2875;BME280;1445;52.600;13.328;2024-03-23T11:35:31;77848.16;;;-145.99;100.00
2875;BME280;1445;52.600;13.328;2024-03-23T11:40:43;77839.75;;;-145.99;100.00
2875;BME280;1445;52.600;13.328;2024-03-23T11:43:09;77814.56;;;-145.99;100.00
2875;BME280;1445;52.600;13.328;2024-03-23T11:45:42;77785.16;;;-145.99;100.00
2875;BME280;1445;52.600;13.328;2024-03-23T11:48:08;77764.16;;;-145.99;100.00
2875;BME280;1445;52.600;13.328;2024-03-23T11:50:37;77755.75;;;-145.99;100.00
2875;BME280;1445;52.600;13.328;2024-03-23T11:53:12;77749.44;;;-145.99;100.00
2875;BME280;1445;52.600;13.328;2024-03-23T11:55:45;77734.75;;;-145.99;100.00
2875;BME280;1445;52.600;13.328;2024-03-23T11:58:11;77707.44;;;-145.99;100.00
2875;BME280;1445;52.600;13.328;2024-03-23T12:00:38;77711.63;;;-145.99;100.00
2875;BME280;1445;52.600;13.328;2024-03-23T12:03:04;77707.44;;;-145.99;100.00
2875;BME280;1445;52.600;13.328;2024-03-23T12:05:31;77726.34;;;-145.99;100.00
2875;BME280;1445;52.600;13.328;2024-03-23T12:08:28;77743.13;;;-145.99;100.00
2875;BME280;1445;52.600;13.328;2024-03-23T12:13:30;77726.34;;;-145.99;100.00
2875;BME280;1445;52.600;13.328;2024-03-23T12:18:38;77690.63;;;-145.99;100.00
2875;BME280;1445;52.600;13.328;2024-03-23T12:21:04;77694.84;;;-145.99;100.00
2875;BME280;1445;52.600;13.328;2024-03-23T12:23:29;77699.03;;;-145.99;100.00
2875;BME280;1445;52.600;13.328;2024-03-23T12:25:54;77692.72;;;-145.99;100.00
2875;BME280;1445;52.600;13.328;2024-03-23T12:28:20;77675.94;;;-145.99;100.00
2875;BME280;1445;52.600;13.328;2024-03-23T12:30:45;77648.63;;;-145.99;100.00
2875;BME280;1445;52.600;13.328;2024-03-23T12:33:11;77648.63;;;-145.99;100.00
2875;BME280;1445;52.600;13.328;2024-03-23T12:35:36;77648.63;;;-145.99;100.00
2875;BME280;1445;52.600;13.328;2024-03-23T12:38:01;77650.72;;;-145.99;100.00
2875;BME280;1445;52.600;13.328;2024-03-23T12:40:27;77636.03;;;-145.99;100.00
2875;BME280;1445;52.600;13.328;2024-03-23T12:42:53;77621.31;;;-145.99;100.00
2875;BME280;1445;52.600;13.328;2024-03-23T12:45:19;77627.63;;;-145.99;100.00
2875;BME280;1445;52.600;13.328;2024-03-23T12:47:44;77623.41;;;-145.99;100.00
2875;BME280;1445;52.600;13.328;2024-03-23T12:50:10;77543.59;;;-145.99;100.00
2875;BME280;1445;52.600;13.328;2024-03-23T12:52:36;77543.59;;;-145.99;100.00
2875;BME280;1445;52.600;13.328;2024-03-23T12:55:02;77531.00;;;-145.99;100.00
2875;BME280;1445;52.600;13.328;2024-03-23T12:57:30;77507.91;;;-145.99;100.00
2875;BME280;1445;52.600;13.328;2024-03-23T12:59:56;77457.50;;;-145.99;100.00
2875;BME280;1445;52.600;13.328;2024-03-23T13:02:21;77455.41;;;-145.99;100.00
2875;BME280;1445;52.600;13.328;2024-03-23T13:04:51;77470.09;;;-145.99;100.00
2875;BME280;1445;52.600;13.328;2024-03-23T13:07:17;77459.59;;;-145.99;100.00
2875;BME280;1445;52.600;13.328;2024-03-23T13:09:43;77413.38;;;-145.99;100.00
2875;BME280;1445;52.600;13.328;2024-03-23T13:12:08;77461.69;;;-145.99;100.00
2875;BME280;1445;52.600;13.328;2024-03-23T13:14:34;77476.41;;;-145.99;100.00
2875;BME280;1445;52.600;13.328;2024-03-23T13:16:59;77497.41;;;-145.99;100.00
2875;BME280;1445;52.600;13.328;2024-03-23T13:19:25;77512.09;;;-145.99;100.00
2875;BME280;1445;52.600;13.328;2024-03-23T13:21:56;77482.69;;;-145.99;100.00
2875;BME280;1445;52.600;13.328;2024-03-23T13:24:22;77451.19;;;-145.99;100.00
2875;BME280;1445;52.600;13.328;2024-03-23T13:26:50;77333.59;;;-145.99;100.00
2875;BME280;1445;52.600;13.328;2024-03-23T13:29:15;77329.38;;;-145.99;100.00
2875;BME280;1445;52.600;13.328;2024-03-23T13:31:40;77234.88;;;-145.99;100.00
2875;BME280;1445;52.600;13.328;2024-03-23T13:34:06;77100.47;;;-145.99;100.00
2875;BME280;1445;52.600;13.328;2024-03-23T13:36:31;77176.06;;;-145.99;100.00
2875;BME280;1445;52.600;13.328;2024-03-23T13:38:57;77169.78;;;-145.99;100.00
2875;BME280;1445;52.600;13.328;2024-03-23T13:41:22;77243.28;;;-145.99;100.00
2875;BME280;1445;52.600;13.328;2024-03-23T13:43:48;77308.38;;;-145.99;100.00
2875;BME280;1445;52.600;13.328;2024-03-23T13:46:13;77358.78;;;-145.99;100.00